Time;durP1;ratioP1;P1;durP2;ratioP2;P2;SDS_P1;SDS_P2;PMS_P1;PMS_P2;Temp;Humidity;BMP_temperature;BMP_pressure;BME280_temperature;BME280_humidity;BME280_pressure;Samples;Min_cycle;Max_cycle;Signal;HPM_P1;HPM_P2
2022/08/13 00:03:18;;;;;;;6.57;5.97;;;14.20;1.00;;;;;;8345947;28;20201;-67
2022/08/13 00:07:19;;;;;;;6.20;5.13;;;14.10;99.90;;;;;;8340867;28;20198;-67
2022/08/13 00:15:43;;;;;;;5.10;4.63;;;14.00;99.90;;;;;;8350938;28;20197;-67
2022/08/13 00:19:46;;;;;;;5.77;5.27;;;13.90;1.00;;;;;;8345908;28;20255;-67
2022/08/13 00:23:54;;;;;;;7.07;6.10;;;13.80;1.00;;;;;;8347035;28;20185;-68
2022/08/13 00:27:57;;;;;;;6.60;6.00;;;13.80;1.00;;;;;;8341383;28;20182;-68
2022/08/13 00:31:57;;;;;;;6.30;5.70;;;13.90;99.90;;;;;;8341402;28;20182;-67
2022/08/13 00:35:58;;;;;;;5.70;5.20;;;13.90;1.00;;;;;;8343170;28;20189;-67
2022/08/13 00:39:59;;;;;;;6.20;5.60;;;13.90;1.00;;;;;;8341456;28;20217;-67
2022/08/13 00:44:01;;;;;;;6.23;5.67;;;13.90;99.90;;;;;;8343886;28;20189;-67
2022/08/13 00:52:30;;;;;;;6.00;5.50;;;13.70;1.00;;;;;;8341257;28;20209;-67
2022/08/13 00:56:35;;;;;;;5.43;4.97;;;13.70;99.90;;;;;;8360672;28;20200;-67
2022/08/13 01:00:36;;;;;;;5.47;4.97;;;13.60;99.90;;;;;;8339602;28;20217;-67
2022/08/13 01:04:38;;;;;;;5.33;4.87;;;13.60;99.90;;;;;;8351886;28;20189;-67
2022/08/13 01:08:40;;;;;;;5.27;4.77;;;13.60;99.90;;;;;;8336345;28;20189;-67
2022/08/13 01:12:42;;;;;;;5.80;5.23;;;13.50;1.00;;;;;;8343547;28;20324;-67
2022/08/13 01:16:42;;;;;;;6.13;4.70;;;13.50;99.90;;;;;;8340316;28;20270;-67
2022/08/13 01:20:49;;;;;;;5.47;4.97;;;13.50;1.00;;;;;;8342254;28;20218;-67
2022/08/13 01:24:50;;;;;;;6.83;5.87;;;13.40;99.90;;;;;;8336006;28;20199;-67
2022/08/13 01:28:52;;;;;;;5.83;5.33;;;13.40;1.00;;;;;;8350466;28;20221;-67
2022/08/13 01:32:54;;;;;;;5.50;5.00;;;13.40;99.90;;;;;;8341527;28;20239;-68
2022/08/13 01:36:56;;;;;;;6.23;5.57;;;13.30;99.90;;;;;;8339212;28;20552;-67
2022/08/13 01:40:57;;;;;;;6.10;5.50;;;13.30;99.90;;;;;;8342108;28;20218;-67
2022/08/13 01:44:59;;;;;;;5.83;5.23;;;13.30;99.90;;;;;;8350898;28;20186;-74
2022/08/13 01:53:19;;;;;;;6.50;5.90;;;13.20;99.90;;;;;;8343738;28;20213;-67
2022/08/13 01:57:20;;;;;;;9.03;5.97;;;13.30;99.90;;;;;;8352285;28;20248;-67
2022/08/13 02:01:26;;;;;;;5.77;5.27;;;13.30;99.90;;;;;;8339486;28;20323;-68
2022/08/13 02:05:27;;;;;;;5.83;5.33;;;13.30;25.20;;;;;;8343439;28;21488;-68
2022/08/13 02:09:28;;;;;;;5.93;5.33;;;13.20;1.00;;;;;;8344746;28;20191;-67
2022/08/13 02:13:29;;;;;;;6.70;5.93;;;13.20;82.00;;;;;;8336978;28;20220;-75
2022/08/13 02:17:36;;;;;;;8.33;6.00;;;13.20;99.90;;;;;;8344743;28;20273;-67
2022/08/13 02:21:39;;;;;;;8.27;7.13;;;13.20;99.90;;;;;;8339268;28;20206;-67
2022/08/13 02:25:43;;;;;;;7.47;6.40;;;13.20;1.00;;;;;;8341268;28;20261;-67
2022/08/13 02:29:44;;;;;;;9.60;6.30;;;13.40;1.00;;;;;;8338914;28;20242;-67
2022/08/13 02:33:46;;;;;;;6.43;5.83;;;13.50;1.00;;;;;;8338632;28;20186;-68
2022/08/13 02:37:47;;;;;;;6.37;5.77;;;13.40;1.00;;;;;;8341187;28;20241;-68
2022/08/13 02:41:49;;;;;;;6.57;5.97;;;13.50;1.00;;;;;;8338218;28;20202;-67
2022/08/13 02:45:50;;;;;;;6.40;5.80;;;13.50;1.00;;;;;;8341027;28;20182;-67
2022/08/13 02:49:52;;;;;;;5.80;5.30;;;13.60;1.00;;;;;;8336209;28;20178;-67
2022/08/13 02:53:53;;;;;;;6.17;5.53;;;13.70;99.90;;;;;;8342105;28;20178;-67
2022/08/13 02:57:53;;;;;;;7.60;6.30;;;13.80;99.90;;;;;;8337496;28;20210;-68
2022/08/13 03:01:55;;;;;;;6.47;5.87;;;13.90;99.90;;;;;;8345637;28;20248;-68
2022/08/13 03:05:56;;;;;;;6.70;6.00;;;14.00;99.90;;;;;;8336222;28;20251;-68
2022/08/13 03:09:57;;;;;;;5.80;5.30;;;14.10;1.00;;;;;;8344362;28;20194;-68
2022/08/13 03:14:07;;;;;;;6.37;5.80;;;14.20;1.00;;;;;;8339246;28;20306;-67
2022/08/13 03:18:09;;;;;;;6.37;5.63;;;14.40;99.90;;;;;;8346016;28;20272;-67
2022/08/13 03:22:10;;;;;;;7.23;6.57;;;14.40;99.90;;;;;;8344873;28;20293;-68
2022/08/13 03:26:11;;;;;;;7.23;6.53;;;14.50;99.90;;;;;;8362638;28;20173;-67
2022/08/13 03:30:15;;;;;;;8.63;7.77;;;14.60;67.10;;;;;;8344804;28;20182;-68
2022/08/13 03:34:17;;;;;;;10.17;8.47;;;14.70;99.90;;;;;;8343875;28;20182;-67
2022/08/13 03:38:18;;;;;;;8.33;7.53;;;14.80;11.30;;;;;;8351043;28;20185;-67
2022/08/13 03:42:19;;;;;;;7.20;6.57;;;14.90;29.00;;;;;;8349284;28;20178;-67
2022/08/13 03:46:21;;;;;;;6.90;6.30;;;14.90;1.00;;;;;;8349091;28;20178;-67
2022/08/13 03:50:22;;;;;;;8.10;7.33;;;14.90;59.50;;;;;;8341697;28;20181;-67
2022/08/13 03:54:23;;;;;;;11.90;9.37;;;15.00;99.90;;;;;;8340448;28;20178;-68
2022/08/13 03:58:26;;;;;;;7.93;7.23;;;15.00;99.90;;;;;;8344329;28;20193;-68
2022/08/13 04:02:28;;;;;;;10.33;9.33;;;15.00;99.90;;;;;;8343174;28;20186;-68
2022/08/13 04:06:29;;;;;;;8.80;7.90;;;15.00;99.90;;;;;;8352836;28;20178;-70
2022/08/13 04:10:29;;;;;;;9.43;8.63;;;15.00;99.90;;;;;;8348767;28;20231;-68
2022/08/13 04:14:31;;;;;;;7.73;7.03;;;14.90;99.90;;;;;;8343204;28;20244;-68
2022/08/13 04:18:33;;;;;;;6.67;5.97;;;14.90;99.90;;;;;;8349561;28;20229;-68
2022/08/13 04:22:36;;;;;;;8.07;7.33;;;15.00;99.90;;;;;;8334149;28;20285;-68
2022/08/13 04:26:37;;;;;;;9.00;8.10;;;15.10;99.90;;;;;;8339098;28;20178;-68
2022/08/13 04:30:43;;;;;;;8.13;7.33;;;15.20;99.90;;;;;;8340323;28;20190;-68
2022/08/13 04:34:44;;;;;;;8.77;7.97;;;15.40;99.90;;;;;;8341305;28;20185;-68
2022/08/13 04:38:45;;;;;;;9.20;8.37;;;15.40;99.90;;;;;;8354523;28;20220;-68
2022/08/13 04:42:53;;;;;;;8.77;8.00;;;15.50;99.90;;;;;;8354241;28;20264;-68
2022/08/13 04:46:55;;;;;;;10.27;9.30;;;15.60;99.90;;;;;;8340536;28;20256;-68
2022/08/13 04:50:55;;;;;;;9.33;8.53;;;15.70;99.90;;;;;;8335915;28;20217;-71
2022/08/13 04:54:56;;;;;;;8.90;8.10;;;15.80;99.90;;;;;;8333473;28;20186;-67
2022/08/13 04:58:57;;;;;;;8.60;7.80;;;15.90;99.90;;;;;;8335121;28;20308;-68
2022/08/13 05:03:13;;;;;;;11.33;10.13;;;16.00;99.90;;;;;;8332385;28;20261;-67
2022/08/13 05:07:15;;;;;;;8.53;7.47;;;16.00;99.90;;;;;;8334343;28;20266;-67
2022/08/13 05:11:18;;;;;;;9.30;8.40;;;16.00;99.90;;;;;;8336053;28;20210;-67
2022/08/13 05:15:19;;;;;;;8.13;7.43;;;16.00;99.90;;;;;;8344185;28;20229;-67
2022/08/13 05:19:19;;;;;;;9.83;8.87;;;16.10;99.90;;;;;;8333516;28;20209;-67
2022/08/13 05:23:21;;;;;;;9.83;8.93;;;16.10;99.90;;;;;;8347021;28;20173;-67
2022/08/13 05:27:22;;;;;;;9.23;8.33;;;16.20;99.90;;;;;;8351827;28;20288;-67
2022/08/13 05:31:23;;;;;;;11.23;10.13;;;16.30;99.90;;;;;;8334808;28;20227;-68
2022/08/13 05:35:26;;;;;;;13.57;12.13;;;16.30;99.90;;;;;;8334669;28;20190;-67
2022/08/13 05:39:26;;;;;;;10.27;9.33;;;16.30;99.90;;;;;;8333660;28;20218;-67
2022/08/13 05:43:29;;;;;;;12.97;9.80;;;16.30;99.90;;;;;;8332405;28;20181;-67
2022/08/13 05:47:30;;;;;;;12.20;10.97;;;16.50;99.90;;;;;;8334894;28;20183;-67
2022/08/13 05:51:31;;;;;;;12.90;11.70;;;16.60;99.90;;;;;;8338055;28;20190;-67
2022/08/13 05:55:32;;;;;;;11.77;10.63;;;16.80;99.90;;;;;;8335264;28;20184;-67
2022/08/13 06:03:52;;;;;;;11.03;9.93;;;17.20;99.90;;;;;;8332919;28;20292;-71
2022/08/13 06:07:54;;;;;;;12.67;11.37;;;17.50;99.90;;;;;;8337709;28;20186;-68
2022/08/13 06:11:59;;;;;;;10.67;9.57;;;17.60;99.90;;;;;;8331787;28;20226;-68
2022/08/13 06:16:01;;;;;;;10.47;9.57;;;17.80;99.90;;;;;;8334863;28;20185;-68
2022/08/13 06:20:03;;;;;;;10.27;9.37;;;18.00;99.90;;;;;;8336025;28;20209;-67
2022/08/13 06:24:12;;;;;;;10.37;9.37;;;18.10;99.90;;;;;;8333112;28;20277;-68
2022/08/13 06:28:15;;;;;;;10.47;9.47;;;18.20;99.90;;;;;;8334679;28;20179;-68
2022/08/13 06:32:16;;;;;;;9.53;8.70;;;18.30;99.90;;;;;;8336730;28;20611;-68
2022/08/13 06:36:17;;;;;;;15.60;13.83;;;18.40;99.90;;;;;;8338964;28;20187;-68
2022/08/13 06:40:22;;;;;;;17.90;16.00;;;18.40;1.00;;;;;;8338580;28;20396;-69
2022/08/13 06:44:23;;;;;;;14.47;12.97;;;18.30;1.00;;;;;;8338118;28;20289;-68
2022/08/13 06:48:24;;;;;;;26.17;23.67;;;18.40;1.00;;;;;;8340612;28;20560;-68
2022/08/13 06:52:27;;;;;;;19.57;17.67;;;18.60;1.00;;;;;;8345593;28;20210;-68
2022/08/13 06:56:28;;;;;;;16.77;15.07;;;18.90;99.90;;;;;;8340882;28;20178;-68
2022/08/13 07:00:30;;;;;;;16.90;15.30;;;19.20;1.00;;;;;;8342450;28;20305;-68
2022/08/13 07:04:30;;;;;;;14.70;13.20;;;19.50;38.60;;;;;;8340139;28;20564;-68
2022/08/13 07:08:31;;;;;;;15.20;13.60;;;19.90;99.90;;;;;;8339421;28;20182;-68
2022/08/13 07:12:33;;;;;;;12.47;11.30;;;20.40;99.90;;;;;;8336144;28;20240;-68
2022/08/13 07:16:34;;;;;;;11.27;10.17;;;20.90;62.60;;;;;;8339000;28;20170;-69
2022/08/13 07:20:36;;;;;;;16.67;12.23;;;21.20;1.00;;;;;;8337566;28;20202;-66
2022/08/13 07:24:37;;;;;;;11.10;9.13;;;21.40;99.90;;;;;;8338700;28;20197;-67
2022/08/13 07:28:39;;;;;;;12.57;11.37;;;21.80;1.00;;;;;;8336440;28;20246;-67
2022/08/13 07:32:40;;;;;;;11.37;10.27;;;22.10;99.90;;;;;;8336459;28;20198;-68
2022/08/13 07:36:40;;;;;;;10.87;9.83;;;22.40;99.90;;;;;;8336172;28;20186;-67
2022/08/13 07:40:44;;;;;;;12.70;11.40;;;22.70;99.90;;;;;;8333776;28;20213;-67
2022/08/13 07:44:50;;;;;;;8.23;7.53;;;22.90;81.00;;;;;;8336080;28;20182;-67
2022/08/13 07:48:52;;;;;;;10.90;9.77;;;23.20;55.90;;;;;;8338008;28;20182;-67
2022/08/13 07:52:58;;;;;;;12.40;11.20;;;23.40;1.00;;;;;;8336266;28;20182;-68
2022/08/13 07:57:00;;;;;;;9.60;8.70;;;23.50;1.00;;;;;;8352832;28;20240;-67
2022/08/13 08:01:04;;;;;;;11.43;10.20;;;23.80;1.00;;;;;;8333160;28;20213;-67
2022/08/13 08:05:12;;;;;;;9.53;8.53;;;24.00;99.90;;;;;;8346171;28;20186;-66
2022/08/13 08:09:32;;;;;;;16.47;11.13;;;24.00;99.90;;;;;;8344502;28;20193;-68
2022/08/13 08:13:34;;;;;;;8.90;7.70;;;24.10;99.90;;;;;;8341897;28;20214;-70
2022/08/13 08:17:35;;;;;;;11.37;10.17;;;24.40;99.90;;;;;;8339755;28;20182;-68
2022/08/13 08:21:40;;;;;;;8.90;7.00;;;24.70;99.90;;;;;;8333273;28;20232;-68
2022/08/13 08:25:41;;;;;;;6.67;6.03;;;24.90;99.90;;;;;;8337061;28;20174;-68
2022/08/13 08:29:46;;;;;;;7.20;6.50;;;24.80;99.90;;;;;;8336230;28;20197;-67
2022/08/13 08:33:47;;;;;;;6.37;5.73;;;24.50;99.90;;;;;;8338663;28;20187;-68
2022/08/13 08:42:36;;;;;;;8.07;7.00;;;23.70;99.90;;;;;;8331187;28;20225;-68
2022/08/13 08:46:38;;;;;;;8.13;7.07;;;23.50;99.90;;;;;;8335910;28;20231;-68
2022/08/13 08:50:39;;;;;;;7.40;6.70;;;23.50;99.90;;;;;;8334650;28;20260;-68
2022/08/13 08:54:40;;;;;;;7.20;5.97;;;23.60;99.90;;;;;;8335235;28;20182;-72
2022/08/13 08:58:42;;;;;;;6.60;6.00;;;23.60;99.90;;;;;;8338793;28;20193;-67
2022/08/13 09:02:47;;;;;;;7.77;7.10;;;23.60;99.90;;;;;;8336171;28;20187;-69
2022/08/13 09:06:57;;;;;;;8.43;7.13;;;23.50;99.90;;;;;;8333996;28;20204;-67
2022/08/13 09:11:00;;;;;;;7.90;7.20;;;23.40;99.90;;;;;;8335010;28;20591;-67
2022/08/13 09:15:07;;;;;;;7.80;7.10;;;23.30;99.90;;;;;;8336142;28;20177;-67
2022/08/13 09:19:11;;;;;;;6.70;6.10;;;23.50;99.90;;;;;;8346988;28;20206;-66
2022/08/13 09:23:15;;;;;;;6.80;6.13;;;23.80;99.90;;;;;;8336714;28;20178;-66
2022/08/13 09:27:17;;;;;;;7.03;6.07;;;24.00;99.90;;;;;;8336275;28;20183;-67
2022/08/13 09:31:18;;;;;;;6.10;5.47;;;24.50;99.90;;;;;;8349918;28;20335;-67
2022/08/13 09:35:19;;;;;;;6.40;5.80;;;25.00;99.90;;;;;;8348696;28;20182;-66
2022/08/13 09:39:26;;;;;;;5.97;5.37;;;25.20;99.90;;;;;;8334399;28;20233;-66
2022/08/13 09:43:36;;;;;;;6.63;6.03;;;25.20;99.90;;;;;;8334970;28;20269;-66
2022/08/13 09:47:37;;;;;;;8.63;6.80;;;25.10;99.90;;;;;;8336811;28;20222;-68
2022/08/13 09:51:38;;;;;;;7.77;6.10;;;24.70;99.90;;;;;;8336296;28;20199;-69
2022/08/13 09:55:39;;;;;;;7.53;6.43;;;24.40;99.90;;;;;;8338246;28;20195;-68
2022/08/13 09:59:41;;;;;;;7.90;6.17;;;24.30;99.90;;;;;;8338108;28;20271;-69
2022/08/13 10:03:42;;;;;;;6.63;6.03;;;24.00;99.90;;;;;;8343786;28;20197;-67
2022/08/13 10:07:43;;;;;;;7.83;7.03;;;23.70;99.90;;;;;;8336897;28;20248;-68
2022/08/13 10:11:44;;;;;;;8.00;6.77;;;23.60;99.90;;;;;;8344084;28;20268;-68
2022/08/13 10:15:45;;;;;;;9.13;6.00;;;23.70;99.90;;;;;;8331094;28;20317;-67
2022/08/13 10:19:46;;;;;;;7.13;6.13;;;24.00;99.90;;;;;;8338454;28;20214;-68
2022/08/13 10:23:47;;;;;;;6.13;5.53;;;24.50;99.90;;;;;;8351320;28;20243;-68
2022/08/13 10:27:49;;;;;;;6.00;5.40;;;25.10;99.90;;;;;;8353854;28;20185;-67
2022/08/13 10:31:50;;;;;;;6.50;5.90;;;25.40;99.90;;;;;;8340745;28;20196;-67
2022/08/13 10:35:55;;;;;;;7.70;6.10;;;25.20;99.90;;;;;;8328889;28;20195;-68
2022/08/13 10:40:00;;;;;;;7.40;5.80;;;24.90;99.90;;;;;;8356997;28;20332;-67
2022/08/13 10:44:01;;;;;;;6.20;5.70;;;24.60;99.90;;;;;;8337750;28;20261;-67
2022/08/13 10:48:07;;;;;;;7.07;6.37;;;24.40;99.90;;;;;;8338837;28;20187;-67
2022/08/13 10:52:08;;;;;;;14.80;10.57;;;24.40;99.90;;;;;;8359380;28;20217;-68
2022/08/13 10:56:11;;;;;;;6.20;5.70;;;24.50;99.90;;;;;;8339691;28;20190;-67
2022/08/13 11:00:14;;;;;;;6.10;5.50;;;24.70;99.90;;;;;;8341123;28;20220;-66
2022/08/13 11:04:17;;;;;;;7.17;6.40;;;24.80;99.90;;;;;;8339796;28;20178;-67
2022/08/13 11:08:19;;;;;;;7.00;6.30;;;25.00;99.90;;;;;;8341693;28;20182;-67
2022/08/13 11:12:20;;;;;;;11.30;9.57;;;25.20;99.90;;;;;;8337163;28;20251;-65
2022/08/13 11:20:50;;;;;;;6.50;5.83;;;25.60;99.90;;;;;;8336813;28;20217;-66
2022/08/13 11:24:51;;;;;;;6.30;5.70;;;25.70;99.90;;;;;;8334937;28;20189;-66
2022/08/13 11:28:52;;;;;;;6.47;5.82;;;25.70;99.90;;;;;;8337987;28;20182;-67
2022/08/13 11:32:53;;;;;;;7.55;5.72;;;25.60;99.90;;;;;;8342613;28;20182;-67
2022/08/13 11:36:54;;;;;;;6.82;5.63;;;25.60;99.90;;;;;;8336536;28;20183;-67
2022/08/13 11:40:57;;;;;;;7.63;5.60;;;25.60;99.90;;;;;;8339459;28;21708;-66
2022/08/13 11:44:58;;;;;;;5.53;4.93;;;25.70;99.90;;;;;;8338498;28;20200;-66
2022/08/13 11:48:59;;;;;;;6.97;4.82;;;26.00;99.90;;;;;;8334899;28;20264;-67
2022/08/13 11:53:00;;;;;;;4.72;4.32;;;26.30;88.70;;;;;;8334933;28;20197;-65
2022/08/13 11:57:05;;;;;;;4.80;4.28;;;26.20;21.90;;;;;;8332843;28;20186;-66
2022/08/13 12:01:06;;;;;;;5.80;5.20;;;26.00;13.90;;;;;;8338136;28;20218;-68
2022/08/13 12:05:07;;;;;;;5.95;4.35;;;25.80;38.30;;;;;;8332804;28;20173;-66
2022/08/13 12:09:08;;;;;;;6.57;4.88;;;26.00;81.60;;;;;;8349155;28;20190;-63
2022/08/13 12:13:09;;;;;;;4.38;4.03;;;26.30;59.70;;;;;;8292856;28;1340418;-66
2022/08/13 12:17:10;;;;;;;4.20;3.88;;;26.60;13.30;;;;;;8337508;28;20187;-67
2022/08/13 12:21:11;;;;;;;4.30;3.92;;;26.60;1.00;;;;;;8338510;28;20257;-65
2022/08/13 12:25:12;;;;;;;5.35;4.82;;;26.60;1.00;;;;;;8335798;28;20182;-65
2022/08/13 12:29:13;;;;;;;4.97;4.40;;;26.60;1.00;;;;;;8335631;28;20185;-65
2022/08/13 12:33:16;;;;;;;5.10;4.15;;;26.60;1.00;;;;;;8351413;28;20208;-66
2022/08/13 12:37:26;;;;;;;5.05;4.60;;;26.60;1.00;;;;;;8354109;28;20178;-66
2022/08/13 12:41:28;;;;;;;6.38;5.03;;;26.60;3.30;;;;;;8351649;28;20212;-66
2022/08/13 12:45:30;;;;;;;5.38;4.90;;;26.90;1.00;;;;;;8350676;28;20218;-70
2022/08/13 12:49:31;;;;;;;4.60;4.20;;;27.40;1.00;;;;;;8339176;28;20190;-66
2022/08/13 12:53:33;;;;;;;5.22;4.72;;;27.80;1.00;;;;;;8351550;28;20189;-66
2022/08/13 12:57:34;;;;;;;4.85;4.35;;;28.10;1.00;;;;;;8335981;28;20201;-65
2022/08/13 13:01:35;;;;;;;4.40;4.10;;;28.50;1.00;;;;;;8335316;28;20293;-66
2022/08/13 13:05:36;;;;;;;4.88;4.45;;;28.60;1.00;;;;;;8333731;28;20237;-66
2022/08/13 13:09:36;;;;;;;4.95;4.55;;;28.80;1.00;;;;;;8333365;28;20179;-66
2022/08/13 13:13:37;;;;;;;4.65;4.25;;;29.20;1.00;;;;;;8334829;28;20285;-66
2022/08/13 13:17:40;;;;;;;5.00;4.53;;;29.70;1.00;;;;;;8339186;28;20194;-67
2022/08/13 13:21:42;;;;;;;4.63;4.20;;;29.90;1.00;;;;;;8346181;28;20205;-66
2022/08/13 13:25:45;;;;;;;5.30;4.78;;;30.30;1.00;;;;;;8342430;28;20182;-67
2022/08/13 13:29:45;;;;;;;5.00;4.60;;;30.50;1.00;;;;;;8346956;28;20188;-66
2022/08/13 13:33:46;;;;;;;5.57;4.97;;;30.40;1.00;;;;;;8345831;28;20193;-66
2022/08/13 13:37:47;;;;;;;5.82;5.20;;;30.10;1.00;;;;;;8333278;28;20189;-66
2022/08/13 13:41:48;;;;;;;5.63;5.13;;;29.50;1.00;;;;;;8335821;28;20210;-66
2022/08/13 13:45:49;;;;;;;5.35;4.95;;;29.30;1.00;;;;;;8334751;28;20212;-65
2022/08/13 13:49:50;;;;;;;5.88;5.32;;;29.00;1.00;;;;;;8336641;28;20186;-64
2022/08/13 13:53:51;;;;;;;5.75;5.15;;;28.70;1.00;;;;;;8337451;28;20185;-66
2022/08/13 13:57:51;;;;;;;5.90;5.40;;;28.40;1.00;;;;;;8349935;28;20245;-66
2022/08/13 14:01:52;;;;;;;5.47;4.97;;;28.40;1.00;;;;;;8333420;28;20331;-66
2022/08/13 14:05:53;;;;;;;5.05;4.55;;;28.40;1.00;;;;;;8346158;28;20579;-66
2022/08/13 14:09:55;;;;;;;6.03;5.53;;;28.30;1.00;;;;;;8344043;28;20201;-66
2022/08/13 14:13:56;;;;;;;5.70;5.10;;;28.30;1.00;;;;;;8341251;28;20214;-64
2022/08/13 14:17:57;;;;;;;5.82;5.35;;;28.10;1.00;;;;;;8349092;28;20189;-66
2022/08/13 14:21:59;;;;;;;7.50;5.60;;;27.70;1.00;;;;;;8336942;28;20202;-65
2022/08/13 14:26:01;;;;;;;6.45;5.20;;;27.70;1.00;;;;;;8335674;28;20182;-65
2022/08/13 14:30:04;;;;;;;6.40;5.80;;;27.60;1.00;;;;;;8338390;28;20244;-65
2022/08/13 14:34:07;;;;;;;6.00;5.45;;;27.40;1.00;;;;;;8353010;28;20178;-64
2022/08/13 14:38:11;;;;;;;6.03;5.57;;;27.40;1.00;;;;;;8334719;28;20273;-65
2022/08/13 14:42:25;;;;;;;5.80;5.30;;;27.40;1.00;;;;;;8342436;28;20206;-65
2022/08/13 14:46:26;;;;;;;7.25;5.55;;;27.60;1.00;;;;;;8341409;28;20179;-65
2022/08/13 14:50:31;;;;;;;5.93;5.43;;;27.80;1.00;;;;;;8336640;28;20185;-66
2022/08/13 14:54:33;;;;;;;7.20;6.50;;;28.10;1.00;;;;;;8334721;28;20216;-66
2022/08/13 14:58:33;;;;;;;8.57;6.05;;;28.00;1.00;;;;;;8332593;28;20188;-66
2022/08/13 15:02:37;;;;;;;7.78;6.80;;;27.80;1.00;;;;;;8333026;28;20241;-66
2022/08/13 15:06:38;;;;;;;7.63;5.70;;;27.40;1.00;;;;;;8336306;28;20728;-66
2022/08/13 15:10:47;;;;;;;6.80;6.13;;;27.20;1.00;;;;;;8336343;28;20222;-66
2022/08/13 15:14:49;;;;;;;7.05;6.45;;;27.10;1.00;;;;;;8343173;28;20229;-66
2022/08/13 15:18:52;;;;;;;7.70;6.43;;;27.00;1.00;;;;;;8342923;28;20221;-66
2022/08/13 15:22:52;;;;;;;6.85;6.28;;;26.90;1.00;;;;;;8338787;28;20206;-66
2022/08/13 15:26:53;;;;;;;7.38;6.30;;;27.00;1.00;;;;;;8336309;28;20205;-66
2022/08/13 15:30:56;;;;;;;7.45;6.70;;;27.10;1.00;;;;;;8338834;28;20179;-68
2022/08/13 15:34:58;;;;;;;7.32;6.63;;;27.40;1.00;;;;;;8351100;28;20186;-66
2022/08/13 15:38:59;;;;;;;6.97;6.28;;;27.60;1.00;;;;;;8355186;28;20184;-72
2022/08/13 15:43:04;;;;;;;6.82;6.20;;;27.90;1.00;;;;;;8338435;28;20186;-66
2022/08/13 15:47:05;;;;;;;8.45;6.00;;;28.30;1.00;;;;;;8338104;28;20182;-66
2022/08/13 15:51:06;;;;;;;7.60;6.80;;;28.70;1.00;;;;;;8341232;28;20273;-66
2022/08/13 15:55:07;;;;;;;6.95;6.25;;;28.50;1.00;;;;;;8342031;28;20214;-65
2022/08/13 15:59:08;;;;;;;7.20;6.50;;;28.10;1.00;;;;;;8348240;28;20249;-66
2022/08/13 16:03:09;;;;;;;8.07;7.35;;;27.50;1.00;;;;;;8336253;28;20178;-66
2022/08/13 16:07:11;;;;;;;8.02;7.28;;;26.60;17.20;;;;;;8337033;28;20178;-67
2022/08/13 16:11:12;;;;;;;8.02;7.22;;;25.90;99.90;;;;;;8334881;28;20221;-67
2022/08/13 16:15:13;;;;;;;9.23;8.27;;;25.40;99.90;;;;;;8337714;28;20403;-67
2022/08/13 16:19:14;;;;;;;8.10;7.40;;;25.10;99.90;;;;;;8349615;28;20224;-68
2022/08/13 16:23:15;;;;;;;8.90;8.00;;;25.10;99.90;;;;;;8339600;28;20220;-67
2022/08/13 16:27:16;;;;;;;9.77;8.87;;;25.30;99.90;;;;;;8337235;28;20175;-67
2022/08/13 16:31:17;;;;;;;9.40;8.10;;;25.40;99.90;;;;;;8336124;28;20193;-67
2022/08/13 16:35:19;;;;;;;8.57;7.63;;;25.40;99.90;;;;;;8335242;28;20186;-66
2022/08/13 16:39:19;;;;;;;8.93;8.10;;;25.30;99.90;;;;;;8338974;28;20210;-67
2022/08/13 16:43:24;;;;;;;7.90;7.20;;;25.10;99.90;;;;;;8350374;28;20225;-67
2022/08/13 16:47:25;;;;;;;7.70;7.00;;;25.00;1.00;;;;;;8337209;28;20179;-67
2022/08/13 16:51:26;;;;;;;7.47;6.77;;;24.80;1.00;;;;;;8338159;28;20186;-67
2022/08/13 16:55:27;;;;;;;8.20;7.40;;;24.70;90.50;;;;;;8335951;28;20183;-67
2022/08/13 16:59:28;;;;;;;9.07;7.87;;;24.60;99.90;;;;;;8336048;28;20225;-67
2022/08/13 17:12:08;;;;;;;11.73;10.53;;;24.00;1.00;;;;;;8335353;28;20233;-67
2022/08/13 17:16:10;;;;;;;16.23;11.87;;;23.70;60.70;;;;;;8333191;28;20188;-67
2022/08/13 17:20:14;;;;;;;10.77;9.33;;;23.50;99.90;;;;;;8334652;28;20198;-67
2022/08/13 17:24:15;;;;;;;11.30;10.10;;;23.40;1.00;;;;;;8333752;28;20181;-67
2022/08/13 17:28:23;;;;;;;18.77;15.00;;;23.40;1.00;;;;;;8334107;28;20170;-67
2022/08/13 17:32:24;;;;;;;16.93;14.90;;;23.40;1.00;;;;;;8349206;28;20213;-67
2022/08/13 17:36:26;;;;;;;17.67;14.37;;;23.40;1.00;;;;;;8337270;28;20217;-67
2022/08/13 17:40:29;;;;;;;12.00;10.90;;;23.30;1.00;;;;;;8336971;28;20237;-69
2022/08/13 17:44:30;;;;;;;11.00;9.80;;;23.20;99.90;;;;;;8342784;28;20468;-67
2022/08/13 17:48:36;;;;;;;10.37;9.00;;;23.00;99.90;;;;;;8339127;28;20185;-70
2022/08/13 17:52:38;;;;;;;9.57;8.67;;;22.90;1.00;;;;;;8335385;28;20260;-67
2022/08/13 17:56:39;;;;;;;8.33;7.53;;;22.70;28.90;;;;;;8342542;28;20181;-67
2022/08/13 18:00:39;;;;;;;9.57;8.57;;;22.60;99.90;;;;;;8336493;28;20230;-67
2022/08/13 18:04:40;;;;;;;10.03;9.03;;;22.40;99.90;;;;;;8337435;28;20227;-67
2022/08/13 18:08:41;;;;;;;9.40;8.50;;;22.30;12.40;;;;;;8341974;28;20178;-67
2022/08/13 18:12:43;;;;;;;17.20;15.33;;;22.10;99.90;;;;;;8335868;28;20228;-67
2022/08/13 18:16:44;;;;;;;11.40;9.93;;;22.00;19.50;;;;;;8335026;28;20217;-68
2022/08/13 18:20:45;;;;;;;12.80;11.40;;;21.60;99.90;;;;;;8350502;28;20308;-67
2022/08/13 18:24:46;;;;;;;11.90;10.70;;;21.20;99.90;;;;;;8336663;28;20185;-71
2022/08/13 18:28:47;;;;;;;12.10;11.00;;;20.90;99.90;;;;;;8333401;28;20248;-67
2022/08/13 18:32:49;;;;;;;10.40;9.40;;;20.70;99.90;;;;;;8336541;28;20293;-66
2022/08/13 18:36:50;;;;;;;9.63;8.73;;;20.60;99.90;;;;;;8333085;28;20194;-67
2022/08/13 18:40:52;;;;;;;9.17;8.37;;;20.50;99.90;;;;;;8338232;28;20211;-68
2022/08/13 18:44:53;;;;;;;8.40;7.67;;;20.40;99.90;;;;;;8347779;28;20200;-68
2022/08/13 18:48:54;;;;;;;9.30;8.50;;;20.40;99.90;;;;;;8337315;28;20182;-68
2022/08/13 18:52:55;;;;;;;10.30;9.30;;;20.40;99.90;;;;;;8342749;28;20187;-68
2022/08/13 18:56:57;;;;;;;10.87;9.90;;;20.40;99.90;;;;;;8325174;28;20493;-67
2022/08/13 19:01:04;;;;;;;11.63;10.00;;;20.40;99.90;;;;;;8345954;28;20206;-67
2022/08/13 19:05:06;;;;;;;10.80;9.70;;;20.40;99.90;;;;;;8342467;28;20293;-67
2022/08/13 19:09:07;;;;;;;9.47;8.67;;;20.20;99.90;;;;;;8338742;28;20182;-67
2022/08/13 19:13:08;;;;;;;8.70;7.90;;;20.20;99.90;;;;;;8340154;28;20221;-67
2022/08/13 19:17:09;;;;;;;9.13;8.33;;;20.20;99.90;;;;;;8340331;28;20265;-66
2022/08/13 19:21:10;;;;;;;9.80;8.90;;;20.20;99.90;;;;;;8341472;28;20408;-66
2022/08/13 19:25:11;;;;;;;10.10;9.20;;;20.20;99.90;;;;;;8350344;28;20200;-67
2022/08/13 19:29:12;;;;;;;9.40;8.50;;;20.20;99.90;;;;;;8338393;28;20175;-69
2022/08/13 19:33:19;;;;;;;8.50;7.77;;;20.10;99.90;;;;;;8336551;28;20178;-67
2022/08/13 19:37:20;;;;;;;11.30;10.20;;;20.10;99.90;;;;;;8337889;28;20268;-74
2022/08/13 19:41:21;;;;;;;10.20;9.27;;;20.10;99.90;;;;;;8342350;28;20252;-67
2022/08/13 19:45:23;;;;;;;10.33;9.33;;;20.10;99.90;;;;;;8336800;28;20177;-67
2022/08/13 19:49:25;;;;;;;11.20;10.30;;;20.00;99.90;;;;;;8336468;28;20573;-67
2022/08/13 19:53:26;;;;;;;11.07;9.97;;;20.00;99.90;;;;;;8339652;28;20377;-67
2022/08/13 19:57:28;;;;;;;9.13;8.27;;;20.00;99.90;;;;;;8350310;28;20254;-67
2022/08/13 20:01:29;;;;;;;9.10;7.97;;;19.90;99.90;;;;;;8355553;28;20232;-68
2022/08/13 20:05:32;;;;;;;8.93;8.13;;;19.90;99.90;;;;;;8338935;28;20190;-71
2022/08/13 20:09:37;;;;;;;9.50;8.60;;;19.80;99.90;;;;;;8339789;28;20193;-68
2022/08/13 20:13:38;;;;;;;11.43;10.30;;;19.80;99.90;;;;;;8340287;28;20278;-69
2022/08/13 20:17:40;;;;;;;11.20;10.20;;;19.80;99.90;;;;;;8339129;28;20178;-68
2022/08/13 20:21:40;;;;;;;11.63;10.43;;;19.70;99.90;;;;;;8336981;28;20241;-69
2022/08/13 20:25:43;;;;;;;10.27;9.27;;;19.70;99.90;;;;;;8336188;28;20197;-68
2022/08/13 20:29:44;;;;;;;9.67;8.70;;;19.60;99.90;;;;;;8334246;28;20205;-68
2022/08/13 20:33:45;;;;;;;10.97;9.90;;;19.60;99.90;;;;;;8352487;28;20182;-68
2022/08/13 20:37:49;;;;;;;10.57;9.57;;;19.60;99.90;;;;;;8336886;28;20190;-68
2022/08/13 20:41:50;;;;;;;10.87;9.80;;;19.60;99.90;;;;;;8350891;28;20627;-69
2022/08/13 20:45:51;;;;;;;9.90;9.00;;;19.50;99.90;;;;;;8352065;28;20181;-68
2022/08/13 20:49:52;;;;;;;9.93;9.03;;;19.50;99.90;;;;;;8351257;28;20190;-75
2022/08/13 20:53:54;;;;;;;9.70;8.70;;;19.50;99.90;;;;;;8337460;28;20208;-68
2022/08/13 20:57:55;;;;;;;9.47;8.47;;;19.50;99.90;;;;;;8336046;28;20182;-68
2022/08/13 21:01:56;;;;;;;10.47;9.43;;;19.40;99.90;;;;;;8334107;28;20620;-68
2022/08/13 21:05:56;;;;;;;11.57;10.47;;;19.40;99.90;;;;;;8336176;28;20182;-68
2022/08/13 21:09:57;;;;;;;10.37;9.43;;;19.40;99.90;;;;;;8337153;28;20183;-69
2022/08/13 21:13:58;;;;;;;10.80;9.80;;;19.40;99.90;;;;;;8352717;28;20292;-68
2022/08/13 21:17:59;;;;;;;10.63;9.63;;;19.40;99.90;;;;;;8335671;28;20206;-68
2022/08/13 21:22:03;;;;;;;9.97;9.07;;;19.30;99.90;;;;;;8332374;28;20202;-68
2022/08/13 21:26:03;;;;;;;10.47;9.37;;;19.30;99.90;;;;;;8351260;28;20178;-68
2022/08/13 21:30:06;;;;;;;9.93;8.93;;;19.30;99.90;;;;;;8337006;28;20182;-69
2022/08/13 21:34:07;;;;;;;9.27;8.43;;;19.30;99.90;;;;;;8338313;28;20186;-69